Flight Track Log - Related Links

Times and Time Zones

All times are in EDT time to prevent confusion due to time zone crossing. See the N31700 flight status page for this flight to view local times or setup timezone preferences in your user account.

Time Position Orientation Groundspeed Altitude Reporting Facility
EDT Latitude Longitude Course Direction KTS MPH feet Rate Location/Type
Thu 07:58:34 PM 40.0817 -83.0675 191° South 78 90 1,100  Level Indianapolis Center
Thu 07:59:04 PM 40.0894 -83.0525 56° Northeast 85 98 1,600 857 Climbing Indianapolis Center
Thu 08:00:05 PM 40.0944 -83.0206 78° East 99 114 2,400 787 Climbing Indianapolis Center
Thu 08:01:06 PM 40.0831 -82.9858 113° Southeast 109 125 3,200 661 Climbing Indianapolis Center
Thu 08:02:12 PM 40.0717 -82.9522 114° Southeast 105 121 3,800 541 Climbing Indianapolis Center
Thu 08:03:08 PM 40.0364 -82.9481 175° South 126 145 4,300 513 Climbing Indianapolis Center
Thu 08:04:00 PM 39.8514 -83.1253 191° South  Level Estimated
Thu 08:04:09 PM 39.9986 -82.9475 179° South 129 148 4,800  Level Indianapolis Center
Thu 08:05:18 PM 39.9556 -82.9417 174° South 136 157 5,000 149 Climbing Indianapolis Center
Thu 08:06:10 PM 39.9203 -82.9322 168° South 156 180 5,100 425 Climbing Indianapolis Center
Thu 08:07:11 PM 39.8836 -82.9183 164° South 124 143 5,800 590 Climbing Indianapolis Center
Thu 08:08:12 PM 39.8511 -82.9075 166° South 118 136 6,300 492 Climbing Indianapolis Center
Thu 08:09:13 PM 39.8189 -82.8917 159° South 119 137 6,800 492 Climbing Indianapolis Center
Thu 08:10:14 PM 39.7886 -82.8786 162° South 118 136 7,300 492 Climbing Indianapolis Center
Thu 08:11:15 PM 39.7586 -82.8631 158° South 114 131 7,800 344 Climbing Indianapolis Center
Thu 08:12:16 PM 39.7244 -82.8467 160° South 125 144 8,000 98 Climbing Indianapolis Center
Thu 08:13:17 PM 39.6861 -82.8297 161° South 145 167 8,000  Level Indianapolis Center
Thu 08:14:18 PM 39.6481 -82.8103 159° South 147 169 8,000  Level Indianapolis Center
Thu 08:15:18 PM 39.6097 -82.7933 161° South 146 168 8,000  Level Indianapolis Center
Thu 08:16:19 PM 39.5711 -82.7792 164° South 148 170 8,000 -43 Level Indianapolis Center
Thu 08:17:38 PM 39.5194 -82.7650 168° South 144 166 7,900  Descending Indianapolis Center
Thu 08:18:40 PM 39.4825 -82.7783 196° South 136 157 8,000 49 Climbing Indianapolis Center
Thu 08:19:41 PM 39.4439 -82.7897 193° South 139 160 8,000 -49 Level Indianapolis Center
Thu 08:20:43 PM 39.4075 -82.8028 195° South 137 158 7,900 -48 Descending Indianapolis Center
Thu 08:21:45 PM 39.3714 -82.8156 195° South 134 154 7,900  Level Indianapolis Center
Thu 08:22:46 PM 39.3347 -82.8286 195° South 135 155 7,900 49 Level Indianapolis Center
Thu 08:23:48 PM 39.2972 -82.8414 195° South 136 157 8,000  Climbing Indianapolis Center
Thu 08:24:50 PM 39.2606 -82.8553 196° South 136 157 7,900  Descending Indianapolis Center
Thu 08:25:51 PM 39.2186 -82.8667 192° South 133 153 8,000  Climbing Indianapolis Center
Thu 08:26:53 PM 39.1825 -82.8797 196° South 134 154 7,900 -48 Descending Indianapolis Center
Thu 08:27:55 PM 39.1492 -82.8931 197° South 138 159 7,900 -48 Level Indianapolis Center
Thu 08:28:57 PM 39.1114 -82.9056 194° South 140 161 7,800 -49 Descending Indianapolis Center
Thu 08:29:58 PM 39.0669 -82.9203 194° South 138 159 7,800 98 Level Indianapolis Center
Thu 08:31:00 PM 39.0314 -82.9331 196° South 132 152 8,000 97 Climbing Indianapolis Center
Thu 08:32:02 PM 38.9956 -82.9442 194° South 132 152 8,000  Level Indianapolis Center
Thu 08:33:03 PM 38.9600 -82.9583 197° South 134 154 8,000  Level Indianapolis Center
Thu 08:34:05 PM 38.9242 -82.9708 195° South 134 154 8,000  Level Indianapolis Center
Thu 08:35:07 PM 38.8869 -82.9819 193° South 136 157 8,000  Level Indianapolis Center
Thu 08:36:09 PM 38.8517 -82.9964 198° South 135 155 8,000  Level Indianapolis Center
Thu 08:37:10 PM 38.8069 -83.0122 195° South 139 160 8,000  Level Indianapolis Center
Thu 08:38:12 PM 38.7700 -83.0242 194° South 137 158 8,000  Level Indianapolis Center
Thu 08:39:14 PM 38.7322 -83.0386 197° South 140 161 8,000  Level Indianapolis Center
Thu 08:41:17 PM 38.6564 -83.0642 195° South 140 161 8,000  Level Indianapolis Center
Thu 08:42:19 PM 38.6144 -83.0789 195° South 140 161 8,000  Level Indianapolis Center
Thu 08:43:21 PM 38.5758 -83.0928 196° South 143 165 8,000  Level Indianapolis Center
Thu 08:44:22 PM 38.5369 -83.1058 195° South 144 166 8,000  Level Indianapolis Center
Thu 08:45:24 PM 38.4972 -83.1136 189° South 144 166 8,000  Level Indianapolis Center
Thu 08:46:26 PM 38.4578 -83.1242 192° South 145 167 8,000  Level Indianapolis Center
Thu 08:47:27 PM 38.4194 -83.1442 202° Southwest 147 169 8,000  Level Indianapolis Center
Thu 08:48:29 PM 38.3722 -83.1575 192° South 148 170 8,000  Level Indianapolis Center
Thu 08:49:30 PM 38.3333 -83.1689 193° South 144 166 8,000  Level Indianapolis Center
Thu 08:50:32 PM 38.2942 -83.1844 197° South 146 168 8,000  Level Indianapolis Center
Thu 08:51:33 PM 38.2550 -83.1989 196° South 146 168 8,000  Level Indianapolis Center
Thu 08:52:35 PM 38.2133 -83.2125 194° South 151 174 8,000  Level Indianapolis Center
Thu 08:53:37 PM 38.1736 -83.2256 194° South 148 170 8,000  Level Indianapolis Center
Thu 08:54:38 PM 38.1336 -83.2383 194° South 147 169 8,000  Level Indianapolis Center
Thu 08:55:40 PM 38.0889 -83.2544 196° South 145 167 8,000  Level Indianapolis Center
Thu 08:56:41 PM 38.0506 -83.2675 195° South 142 163 8,000  Level Indianapolis Center
Thu 08:57:43 PM 38.0136 -83.2794 194° South 139 160 8,000  Level Indianapolis Center
Thu 08:58:45 PM 37.9758 -83.2928 196° South 140 161 8,000  Level Indianapolis Center
Thu 08:59:46 PM 37.9389 -83.3044 194° South 139 160 8,000  Level Indianapolis Center
Thu 09:00:48 PM 37.9006 -83.3167 194° South 140 161 8,000  Level Indianapolis Center
Thu 09:01:49 PM 37.8622 -83.3294 195° South 141 162 8,000  Level Indianapolis Center
Thu 09:02:51 PM 37.8239 -83.3433 196° South 142 163 8,000  Level Indianapolis Center
Thu 09:03:52 PM 37.7806 -83.3583 195° South 139 160 8,000  Level Indianapolis Center
Thu 09:04:54 PM 37.7417 -83.3717 195° South 143 165 8,000  Level Indianapolis Center
Thu 09:05:56 PM 37.7031 -83.3833 193° South 141 162 8,000  Level Indianapolis Center
Thu 09:06:57 PM 37.6639 -83.3967 195° South 145 167 8,000  Level Indianapolis Center
Thu 09:07:59 PM 37.6233 -83.3917 174° South 154 177 8,000  Level Indianapolis Center
Thu 09:09:00 PM 37.5828 -83.3853 173° South 149 171 8,000  Level Indianapolis Center
Thu 09:10:02 PM 37.5342 -83.3794 175° South 149 171 8,000 -48 Level Indianapolis Center
Thu 09:11:04 PM 37.4928 -83.3728 173° South 149 171 7,900  Descending Indianapolis Center
Thu 09:12:05 PM 37.4522 -83.3681 175° South 148 170 8,000 49 Climbing Indianapolis Center
Thu 09:13:07 PM 37.4106 -83.3636 175° South 148 170 8,000  Level Indianapolis Center
Thu 09:14:09 PM 37.3697 -83.3622 178° South 147 169 8,000 49 Level Indianapolis Center
Thu 09:15:10 PM 37.3297 -83.3639 182° South 145 167 8,100  Climbing Indianapolis Center
Thu 09:16:12 PM 37.2886 -83.3594 175° South 147 169 8,000  Descending Indianapolis Center
Thu 09:17:14 PM 37.2400 -83.3553 176° South 149 171 8,100 49 Climbing Indianapolis Center
Thu 09:18:15 PM 37.1978 -83.3517 176° South 151 174 8,100  Level Indianapolis Center
Thu 09:19:17 PM 37.1567 -83.3494 178° South 150 173 8,100  Level Indianapolis Center
Thu 09:20:18 PM 37.1144 -83.3447 175° South 150 173 8,100  Level Indianapolis Center
Thu 09:21:20 PM 37.0725 -83.3419 177° South 150 173 8,100  Level Indianapolis Center
Thu 09:22:22 PM 37.0325 -83.3400 178° South 147 169 8,100  Level Indianapolis Center
Thu 09:23:23 PM 36.9844 -83.3447 184° South 148 170 8,100  Level Indianapolis Center
Thu 09:24:25 PM 36.9436 -83.3542 190° South 150 173 8,100  Level Indianapolis Center
Thu 09:25:27 PM 36.9069 -83.3725 202° Southwest 145 167 8,100  Level Indianapolis Center
Thu 09:26:29 PM 36.8711 -83.3906 202° Southwest 141 162 8,100  Level Indianapolis Center
Thu 09:27:30 PM 36.8356 -83.4106 204° Southwest 140 161 8,100 -49 Level Indianapolis Center
Thu 09:28:32 PM 36.7997 -83.4319 206° Southwest 142 163 8,000  Descending Indianapolis Center
Thu 09:29:34 PM 36.7628 -83.4528 204° Southwest 145 167 8,100 49 Climbing Indianapolis Center
Thu 09:30:35 PM 36.7200 -83.4772 205° Southwest 146 168 8,100  Level Indianapolis Center
Thu 09:31:37 PM 36.6853 -83.4983 206° Southwest 142 163 8,100  Level Indianapolis Center
Thu 09:32:39 PM 36.6486 -83.5194 205° Southwest 143 165 8,100  Level Indianapolis Center
Thu 09:33:40 PM 36.6119 -83.5392 203° Southwest 143 165 8,100  Level Indianapolis Center
Thu 09:34:42 PM 36.5758 -83.5606 205° Southwest 144 166 8,100 -48 Level Indianapolis Center
Thu 09:35:44 PM 36.5403 -83.5819 206° Southwest 143 165 8,000  Descending Indianapolis Center
Thu 09:36:45 PM 36.5014 -83.6019 202° Southwest 146 168 8,100  Climbing Indianapolis Center
Thu 09:37:47 PM 36.4664 -83.6219 205° Southwest 142 163 8,000 -48 Descending Indianapolis Center
Thu 09:38:49 PM 36.4217 -83.6431 201° Southwest 142 163 8,000  Level Indianapolis Center
Thu 09:39:50 PM 36.3828 -83.6583 198° South 145 167 8,000 -49 Level Indianapolis Center
Thu 09:40:52 PM 36.3483 -83.6819 209° Southwest 143 165 7,900 -48 Descending Indianapolis Center
Thu 09:41:54 PM 36.3150 -83.7047 209° Southwest 138 159 7,900  Level Indianapolis Center

Login

Don't have an account? Register now (free) for customized features, flight alerts, and more!